Thomas, New Mexico
Current Conditions -  °F | °C
As of 3:55 AM on Saturday 22 Nov 2014 (Local Time) from KCAO Reporting Station
Clear Clear  
Wind Chill: 29°   Ceiling: Unl
Heat Index: 36°   Visibility: 10mi
Dew Point: 22°   Wind: 9mph
Humidity: 57%   Direction: 260°W
Pressure: 29.95"   Gusts: NA
Location:  36.2639°N, 103.376°W
Report Text: KCAO 221055Z AUTO 26008KT 10SM CLR 02/M06 A2995 RMK AO2 SLP127 T00221056
Loading
Personal Weather Stations






























Interactive Weather Map New forecast layout! Learn more

10-Day Weather Forecast

Advertisements
Track Severe Weather on mobile